sensor_id;sensor_type;location;lat;lon;timestamp;noise_LAeq;noise_LA_min;noise_LA_max;noise_LA01;noise_LA95
69668;Laerm;66534;52.370;4.832;2023-09-18T00:00:19;43.42;39.47;51.95;;
69668;Laerm;66534;52.370;4.832;2023-09-18T00:00:51;44.38;41.30;47.82;;
69668;Laerm;66534;52.370;4.832;2023-09-18T00:01:21;41.90;39.73;44.02;;
69668;Laerm;66534;52.370;4.832;2023-09-18T00:01:52;42.08;40.29;44.62;;
69668;Laerm;66534;52.370;4.832;2023-09-18T00:02:22;43.15;40.43;45.85;;
69668;Laerm;66534;52.370;4.832;2023-09-18T00:02:52;42.69;40.18;46.78;;
69668;Laerm;66534;52.370;4.832;2023-09-18T00:03:22;44.03;41.47;46.74;;
69668;Laerm;66534;52.370;4.832;2023-09-18T00:03:54;45.53;43.35;48.52;;
69668;Laerm;66534;52.370;4.832;2023-09-18T00:04:24;44.46;41.00;48.06;;
69668;Laerm;66534;52.370;4.832;2023-09-18T00:04:55;42.84;40.31;45.00;;
69668;Laerm;66534;52.370;4.832;2023-09-18T00:05:25;47.03;43.31;52.15;;
69668;Laerm;66534;52.370;4.832;2023-09-18T00:05:55;44.25;41.47;47.10;;
69668;Laerm;66534;52.370;4.832;2023-09-18T00:06:25;42.49;40.21;45.32;;
69668;Laerm;66534;52.370;4.832;2023-09-18T00:06:56;44.16;41.70;46.72;;
69668;Laerm;66534;52.370;4.832;2023-09-18T00:07:26;43.38;41.67;45.55;;
69668;Laerm;66534;52.370;4.832;2023-09-18T00:07:56;44.55;41.84;60.27;;
69668;Laerm;66534;52.370;4.832;2023-09-18T00:08:26;45.97;44.07;48.13;;
69668;Laerm;66534;52.370;4.832;2023-09-18T00:08:57;44.78;41.82;54.88;;
69668;Laerm;66534;52.370;4.832;2023-09-18T00:09:27;44.56;42.22;48.38;;
69668;Laerm;66534;52.370;4.832;2023-09-18T00:09:57;42.28;40.06;43.97;;
69668;Laerm;66534;52.370;4.832;2023-09-18T00:10:28;48.18;40.84;54.45;;
69668;Laerm;66534;52.370;4.832;2023-09-18T00:11:01;44.35;41.64;47.26;;
69668;Laerm;66534;52.370;4.832;2023-09-18T00:11:31;43.77;41.75;45.85;;
69668;Laerm;66534;52.370;4.832;2023-09-18T00:12:02;43.49;41.80;45.22;;
69668;Laerm;66534;52.370;4.832;2023-09-18T00:12:32;44.87;41.69;48.20;;
69668;Laerm;66534;52.370;4.832;2023-09-18T00:13:03;44.08;42.24;47.68;;
69668;Laerm;66534;52.370;4.832;2023-09-18T00:13:33;43.62;41.53;45.31;;
69668;Laerm;66534;52.370;4.832;2023-09-18T00:14:03;45.08;42.47;48.49;;
69668;Laerm;66534;52.370;4.832;2023-09-18T00:14:33;45.81;42.19;51.93;;
69668;Laerm;66534;52.370;4.832;2023-09-18T00:15:04;44.25;42.44;50.66;;
69668;Laerm;66534;52.370;4.832;2023-09-18T00:15:34;46.46;43.39;52.49;;
69668;Laerm;66534;52.370;4.832;2023-09-18T00:16:05;44.91;41.75;48.59;;
69668;Laerm;66534;52.370;4.832;2023-09-18T00:16:35;43.11;39.60;47.21;;
69668;Laerm;66534;52.370;4.832;2023-09-18T00:17:05;44.41;41.25;47.25;;
69668;Laerm;66534;52.370;4.832;2023-09-18T00:17:36;43.71;41.81;46.35;;
69668;Laerm;66534;52.370;4.832;2023-09-18T00:18:06;44.98;43.15;46.63;;
69668;Laerm;66534;52.370;4.832;2023-09-18T00:18:38;46.80;44.71;48.85;;
69668;Laerm;66534;52.370;4.832;2023-09-18T00:19:08;43.86;40.25;47.08;;
69668;Laerm;66534;52.370;4.832;2023-09-18T00:19:39;42.89;40.78;51.78;;
69668;Laerm;66534;52.370;4.832;2023-09-18T00:20:09;44.42;41.89;48.19;;
69668;Laerm;66534;52.370;4.832;2023-09-18T00:20:39;43.94;40.68;46.87;;
69668;Laerm;66534;52.370;4.832;2023-09-18T00:21:11;44.11;40.40;48.67;;
69668;Laerm;66534;52.370;4.832;2023-09-18T00:21:41;44.05;41.36;48.72;;
69668;Laerm;66534;52.370;4.832;2023-09-18T00:22:11;44.84;42.01;46.84;;
69668;Laerm;66534;52.370;4.832;2023-09-18T00:22:41;42.99;40.37;45.87;;
69668;Laerm;66534;52.370;4.832;2023-09-18T00:23:12;44.85;41.83;47.36;;
69668;Laerm;66534;52.370;4.832;2023-09-18T00:23:42;41.56;39.75;44.06;;
69668;Laerm;66534;52.370;4.832;2023-09-18T00:24:12;41.15;39.12;43.90;;
69668;Laerm;66534;52.370;4.832;2023-09-18T00:24:43;44.42;41.24;51.19;;
69668;Laerm;66534;52.370;4.832;2023-09-18T00:25:13;42.94;40.26;46.95;;
69668;Laerm;66534;52.370;4.832;2023-09-18T00:25:45;43.69;40.53;48.26;;
69668;Laerm;66534;52.370;4.832;2023-09-18T00:26:15;45.15;41.93;49.17;;
69668;Laerm;66534;52.370;4.832;2023-09-18T00:26:46;45.10;41.21;50.48;;
69668;Laerm;66534;52.370;4.832;2023-09-18T00:27:18;42.61;40.01;48.42;;
69668;Laerm;66534;52.370;4.832;2023-09-18T00:27:48;41.93;39.81;44.97;;
69668;Laerm;66534;52.370;4.832;2023-09-18T00:28:19;43.61;41.10;46.75;;
69668;Laerm;66534;52.370;4.832;2023-09-18T00:28:49;42.82;38.92;45.66;;
69668;Laerm;66534;52.370;4.832;2023-09-18T00:29:20;42.02;39.93;44.97;;
69668;Laerm;66534;52.370;4.832;2023-09-18T00:29:50;41.61;39.39;43.96;;
69668;Laerm;66534;52.370;4.832;2023-09-18T00:30:20;42.25;39.52;45.21;;
69668;Laerm;66534;52.370;4.832;2023-09-18T00:30:51;42.31;40.57;43.86;;
69668;Laerm;66534;52.370;4.832;2023-09-18T00:31:21;40.66;38.82;42.53;;
69668;Laerm;66534;52.370;4.832;2023-09-18T00:31:51;41.36;37.75;44.84;;
69668;Laerm;66534;52.370;4.832;2023-09-18T00:32:21;42.44;40.12;46.34;;
69668;Laerm;66534;52.370;4.832;2023-09-18T00:32:52;42.86;39.79;46.74;;
69668;Laerm;66534;52.370;4.832;2023-09-18T00:33:22;41.41;39.65;43.78;;
69668;Laerm;66534;52.370;4.832;2023-09-18T00:33:52;41.69;39.72;43.68;;
69668;Laerm;66534;52.370;4.832;2023-09-18T00:34:22;43.26;39.33;46.14;;
69668;Laerm;66534;52.370;4.832;2023-09-18T00:34:53;42.67;40.21;45.72;;
69668;Laerm;66534;52.370;4.832;2023-09-18T00:35:23;42.23;39.88;44.27;;
69668;Laerm;66534;52.370;4.832;2023-09-18T00:35:54;42.73;40.17;47.34;;
69668;Laerm;66534;52.370;4.832;2023-09-18T00:36:24;41.94;38.79;47.68;;
69668;Laerm;66534;52.370;4.832;2023-09-18T00:36:54;43.39;40.95;46.26;;
69668;Laerm;66534;52.370;4.832;2023-09-18T00:37:25;44.06;42.03;46.60;;
69668;Laerm;66534;52.370;4.832;2023-09-18T00:37:55;42.47;40.24;45.35;;
69668;Laerm;66534;52.370;4.832;2023-09-18T00:38:26;43.49;40.41;46.08;;
69668;Laerm;66534;52.370;4.832;2023-09-18T00:38:56;42.29;40.17;44.78;;
69668;Laerm;66534;52.370;4.832;2023-09-18T00:39:26;43.03;40.52;47.71;;
69668;Laerm;66534;52.370;4.832;2023-09-18T00:39:57;44.95;41.94;49.82;;
69668;Laerm;66534;52.370;4.832;2023-09-18T00:40:27;43.74;41.08;47.61;;
69668;Laerm;66534;52.370;4.832;2023-09-18T00:40:57;43.89;41.80;46.04;;
69668;Laerm;66534;52.370;4.832;2023-09-18T00:41:27;43.55;41.01;47.75;;
69668;Laerm;66534;52.370;4.832;2023-09-18T00:41:58;49.00;42.80;63.14;;
69668;Laerm;66534;52.370;4.832;2023-09-18T00:42:28;44.90;42.24;48.95;;
69668;Laerm;66534;52.370;4.832;2023-09-18T00:42:58;45.40;42.77;48.97;;
69668;Laerm;66534;52.370;4.832;2023-09-18T00:43:28;44.89;42.19;48.61;;
69668;Laerm;66534;52.370;4.832;2023-09-18T00:43:59;44.07;42.29;47.51;;
69668;Laerm;66534;52.370;4.832;2023-09-18T00:44:29;43.95;41.22;48.72;;
69668;Laerm;66534;52.370;4.832;2023-09-18T00:44:59;42.97;40.71;47.46;;
69668;Laerm;66534;52.370;4.832;2023-09-18T00:45:30;42.70;40.42;46.46;;
69668;Laerm;66534;52.370;4.832;2023-09-18T00:46:00;44.46;42.10;47.68;;
69668;Laerm;66534;52.370;4.832;2023-09-18T00:46:31;43.28;40.83;45.60;;
69668;Laerm;66534;52.370;4.832;2023-09-18T00:47:01;42.72;40.58;44.80;;
69668;Laerm;66534;52.370;4.832;2023-09-18T00:47:31;44.54;41.93;46.49;;
69668;Laerm;66534;52.370;4.832;2023-09-18T00:48:02;44.42;42.56;46.64;;
69668;Laerm;66534;52.370;4.832;2023-09-18T00:48:32;43.17;41.07;44.78;;
69668;Laerm;66534;52.370;4.832;2023-09-18T00:49:02;42.70;40.76;45.10;;
69668;Laerm;66534;52.370;4.832;2023-09-18T00:49:33;43.47;38.10;46.48;;
69668;Laerm;66534;52.370;4.832;2023-09-18T00:50:04;45.29;39.05;47.92;;
69668;Laerm;66534;52.370;4.832;2023-09-18T00:50:36;45.60;43.19;48.03;;
69668;Laerm;66534;52.370;4.832;2023-09-18T00:51:08;46.59;43.92;50.31;;
69668;Laerm;66534;52.370;4.832;2023-09-18T00:51:38;45.88;43.37;48.06;;
69668;Laerm;66534;52.370;4.832;2023-09-18T00:52:08;44.49;41.40;47.58;;
69668;Laerm;66534;52.370;4.832;2023-09-18T00:52:39;44.45;42.15;46.56;;
69668;Laerm;66534;52.370;4.832;2023-09-18T00:53:10;43.76;41.91;45.57;;
69668;Laerm;66534;52.370;4.832;2023-09-18T00:53:43;43.78;41.70;47.65;;
69668;Laerm;66534;52.370;4.832;2023-09-18T00:54:14;45.98;42.50;53.57;;
69668;Laerm;66534;52.370;4.832;2023-09-18T00:54:48;49.77;46.07;54.94;;
69668;Laerm;66534;52.370;4.832;2023-09-18T00:55:18;46.08;42.01;49.23;;
69668;Laerm;66534;52.370;4.832;2023-09-18T00:55:53;46.20;42.59;50.30;;
69668;Laerm;66534;52.370;4.832;2023-09-18T00:56:24;47.83;42.68;51.05;;
69668;Laerm;66534;52.370;4.832;2023-09-18T00:56:54;44.26;42.35;46.35;;
69668;Laerm;66534;52.370;4.832;2023-09-18T00:57:25;44.67;41.74;47.48;;
69668;Laerm;66534;52.370;4.832;2023-09-18T00:57:55;45.06;42.46;47.27;;
69668;Laerm;66534;52.370;4.832;2023-09-18T00:58:26;43.53;41.55;46.57;;
69668;Laerm;66534;52.370;4.832;2023-09-18T00:58:56;44.41;42.53;46.12;;
69668;Laerm;66534;52.370;4.832;2023-09-18T00:59:27;43.24;41.06;45.04;;
69668;Laerm;66534;52.370;4.832;2023-09-18T00:59:57;45.28;42.66;47.21;;
69668;Laerm;66534;52.370;4.832;2023-09-18T01:00:28;45.94;43.91;49.45;;
69668;Laerm;66534;52.370;4.832;2023-09-18T01:00:58;46.17;42.69;49.36;;
69668;Laerm;66534;52.370;4.832;2023-09-18T01:01:29;45.14;42.50;47.46;;
69668;Laerm;66534;52.370;4.832;2023-09-18T01:02:00;44.64;42.52;46.32;;
69668;Laerm;66534;52.370;4.832;2023-09-18T01:02:30;44.00;41.23;51.94;;
69668;Laerm;66534;52.370;4.832;2023-09-18T01:03:01;45.62;43.11;47.88;;
69668;Laerm;66534;52.370;4.832;2023-09-18T01:03:35;45.00;41.68;48.14;;
69668;Laerm;66534;52.370;4.832;2023-09-18T01:04:05;43.54;41.88;47.16;;
69668;Laerm;66534;52.370;4.832;2023-09-18T01:04:36;43.87;41.66;45.86;;
69668;Laerm;66534;52.370;4.832;2023-09-18T01:05:07;45.30;42.01;48.18;;
69668;Laerm;66534;52.370;4.832;2023-09-18T01:05:37;43.81;42.06;45.48;;
69668;Laerm;66534;52.370;4.832;2023-09-18T01:06:07;43.69;41.59;45.64;;
69668;Laerm;66534;52.370;4.832;2023-09-18T01:06:38;44.70;42.37;46.85;;
69668;Laerm;66534;52.370;4.832;2023-09-18T01:07:08;44.75;42.55;47.08;;
69668;Laerm;66534;52.370;4.832;2023-09-18T01:07:38;43.80;41.20;47.06;;
69668;Laerm;66534;52.370;4.832;2023-09-18T01:08:09;43.80;41.36;46.30;;
69668;Laerm;66534;52.370;4.832;2023-09-18T01:08:39;46.58;44.00;49.62;;
69668;Laerm;66534;52.370;4.832;2023-09-18T01:09:09;45.44;42.92;47.61;;
69668;Laerm;66534;52.370;4.832;2023-09-18T01:09:44;44.76;42.16;47.83;;
69668;Laerm;66534;52.370;4.832;2023-09-18T01:10:15;45.83;43.80;48.63;;
69668;Laerm;66534;52.370;4.832;2023-09-18T01:11:26;44.48;42.12;49.61;;
69668;Laerm;66534;52.370;4.832;2023-09-18T01:12:11;43.63;41.56;45.73;;
69668;Laerm;66534;52.370;4.832;2023-09-18T01:13:17;44.59;41.18;47.44;;
69668;Laerm;66534;52.370;4.832;2023-09-18T01:13:53;43.34;40.58;45.76;;
69668;Laerm;66534;52.370;4.832;2023-09-18T01:14:38;44.23;41.97;47.31;;
69668;Laerm;66534;52.370;4.832;2023-09-18T01:15:12;46.38;43.16;49.32;;
69668;Laerm;66534;52.370;4.832;2023-09-18T01:15:44;44.92;42.50;47.28;;
69668;Laerm;66534;52.370;4.832;2023-09-18T01:16:20;44.69;42.32;46.92;;
69668;Laerm;66534;52.370;4.832;2023-09-18T01:16:56;43.78;41.44;48.37;;
69668;Laerm;66534;52.370;4.832;2023-09-18T01:17:27;44.38;42.43;46.45;;
69668;Laerm;66534;52.370;4.832;2023-09-18T01:17:58;43.51;41.96;45.30;;
69668;Laerm;66534;52.370;4.832;2023-09-18T01:18:28;44.16;42.18;47.13;;
69668;Laerm;66534;52.370;4.832;2023-09-18T01:18:58;42.67;40.67;44.35;;
69668;Laerm;66534;52.370;4.832;2023-09-18T01:19:38;43.49;41.35;46.51;;
69668;Laerm;66534;52.370;4.832;2023-09-18T01:20:09;45.13;41.85;48.75;;
69668;Laerm;66534;52.370;4.832;2023-09-18T01:20:40;44.98;42.04;47.88;;
69668;Laerm;66534;52.370;4.832;2023-09-18T01:21:10;47.24;42.57;50.45;;
69668;Laerm;66534;52.370;4.832;2023-09-18T01:21:40;44.01;41.29;45.78;;
69668;Laerm;66534;52.370;4.832;2023-09-18T01:22:11;42.79;40.15;46.16;;
69668;Laerm;66534;52.370;4.832;2023-09-18T01:22:41;43.63;41.30;45.81;;
69668;Laerm;66534;52.370;4.832;2023-09-18T01:23:13;42.09;40.55;44.59;;
69668;Laerm;66534;52.370;4.832;2023-09-18T01:23:43;41.87;40.03;43.90;;
69668;Laerm;66534;52.370;4.832;2023-09-18T01:24:14;44.44;40.99;47.10;;
69668;Laerm;66534;52.370;4.832;2023-09-18T01:24:45;43.60;41.68;46.78;;
69668;Laerm;66534;52.370;4.832;2023-09-18T01:25:17;42.33;40.63;44.38;;
69668;Laerm;66534;52.370;4.832;2023-09-18T01:25:47;42.95;40.05;46.30;;
69668;Laerm;66534;52.370;4.832;2023-09-18T01:26:17;44.43;40.81;46.65;;
69668;Laerm;66534;52.370;4.832;2023-09-18T01:26:47;43.68;41.71;46.19;;
69668;Laerm;66534;52.370;4.832;2023-09-18T01:27:18;42.75;39.49;45.26;;
69668;Laerm;66534;52.370;4.832;2023-09-18T01:27:48;42.18;40.00;45.82;;
69668;Laerm;66534;52.370;4.832;2023-09-18T01:28:18;43.65;39.66;47.61;;
69668;Laerm;66534;52.370;4.832;2023-09-18T01:28:49;44.46;41.65;48.99;;
69668;Laerm;66534;52.370;4.832;2023-09-18T01:29:19;44.84;42.24;47.00;;
69668;Laerm;66534;52.370;4.832;2023-09-18T01:29:49;44.59;41.77;47.60;;
69668;Laerm;66534;52.370;4.832;2023-09-18T01:30:21;43.15;39.34;61.04;;
69668;Laerm;66534;52.370;4.832;2023-09-18T01:30:51;42.14;39.91;45.65;;
69668;Laerm;66534;52.370;4.832;2023-09-18T01:31:21;42.23;40.08;44.67;;
69668;Laerm;66534;52.370;4.832;2023-09-18T01:31:52;43.92;40.15;52.22;;
69668;Laerm;66534;52.370;4.832;2023-09-18T01:32:23;42.19;39.72;47.35;;
69668;Laerm;66534;52.370;4.832;2023-09-18T01:32:56;44.82;41.16;50.89;;
69668;Laerm;66534;52.370;4.832;2023-09-18T01:33:28;43.58;40.43;45.86;;
69668;Laerm;66534;52.370;4.832;2023-09-18T01:33:59;42.57;40.22;44.59;;
69668;Laerm;66534;52.370;4.832;2023-09-18T01:34:33;43.96;41.82;45.71;;
69668;Laerm;66534;52.370;4.832;2023-09-18T01:35:06;42.46;40.01;44.65;;
69668;Laerm;66534;52.370;4.832;2023-09-18T01:35:37;45.31;41.38;48.29;;
69668;Laerm;66534;52.370;4.832;2023-09-18T01:36:08;44.16;40.59;47.45;;
69668;Laerm;66534;52.370;4.832;2023-09-18T01:36:38;43.67;41.23;46.78;;
69668;Laerm;66534;52.370;4.832;2023-09-18T01:37:09;41.90;39.08;45.75;;
69668;Laerm;66534;52.370;4.832;2023-09-18T01:37:40;41.99;39.44;44.89;;
69668;Laerm;66534;52.370;4.832;2023-09-18T01:38:11;41.74;39.37;45.00;;
69668;Laerm;66534;52.370;4.832;2023-09-18T01:38:41;43.64;39.68;46.25;;
69668;Laerm;66534;52.370;4.832;2023-09-18T01:39:12;43.01;40.04;46.65;;
69668;Laerm;66534;52.370;4.832;2023-09-18T01:39:42;41.65;39.86;43.75;;
69668;Laerm;66534;52.370;4.832;2023-09-18T01:40:14;42.42;40.13;44.61;;
69668;Laerm;66534;52.370;4.832;2023-09-18T01:40:44;41.64;39.33;43.48;;
69668;Laerm;66534;52.370;4.832;2023-09-18T01:41:15;42.63;40.89;44.29;;
69668;Laerm;66534;52.370;4.832;2023-09-18T01:41:45;42.53;40.12;47.70;;
69668;Laerm;66534;52.370;4.832;2023-09-18T01:42:15;44.78;40.43;52.33;;
69668;Laerm;66534;52.370;4.832;2023-09-18T01:42:46;41.80;39.35;44.11;;
69668;Laerm;66534;52.370;4.832;2023-09-18T01:43:16;45.13;41.58;48.07;;
69668;Laerm;66534;52.370;4.832;2023-09-18T01:43:47;42.94;40.11;45.12;;
69668;Laerm;66534;52.370;4.832;2023-09-18T01:44:17;43.21;41.13;47.23;;
69668;Laerm;66534;52.370;4.832;2023-09-18T01:44:47;42.66;40.27;46.03;;
69668;Laerm;66534;52.370;4.832;2023-09-18T01:45:18;41.56;39.47;46.31;;
69668;Laerm;66534;52.370;4.832;2023-09-18T01:45:48;45.36;42.30;51.90;;
69668;Laerm;66534;52.370;4.832;2023-09-18T01:46:19;45.06;41.25;49.72;;
69668;Laerm;66534;52.370;4.832;2023-09-18T01:46:50;41.82;40.11;44.58;;
69668;Laerm;66534;52.370;4.832;2023-09-18T01:47:22;41.80;39.34;44.38;;
69668;Laerm;66534;52.370;4.832;2023-09-18T01:47:56;43.77;41.22;47.87;;
69668;Laerm;66534;52.370;4.832;2023-09-18T01:48:27;43.41;39.92;45.72;;
69668;Laerm;66534;52.370;4.832;2023-09-18T01:48:58;41.80;39.92;43.78;;
69668;Laerm;66534;52.370;4.832;2023-09-18T01:49:29;42.41;40.23;44.48;;
69668;Laerm;66534;52.370;4.832;2023-09-18T01:50:02;43.28;40.52;45.52;;
69668;Laerm;66534;52.370;4.832;2023-09-18T01:50:36;42.89;40.42;45.82;;
69668;Laerm;66534;52.370;4.832;2023-09-18T01:51:06;40.35;38.36;43.80;;
69668;Laerm;66534;52.370;4.832;2023-09-18T01:51:37;40.01;38.41;42.25;;
69668;Laerm;66534;52.370;4.832;2023-09-18T01:52:08;43.70;39.84;46.99;;
69668;Laerm;66534;52.370;4.832;2023-09-18T01:52:38;45.80;41.45;49.39;;
69668;Laerm;66534;52.370;4.832;2023-09-18T01:53:08;46.74;43.25;49.89;;
69668;Laerm;66534;52.370;4.832;2023-09-18T01:53:38;43.86;40.79;46.47;;
69668;Laerm;66534;52.370;4.832;2023-09-18T01:54:09;47.81;41.81;53.53;;
69668;Laerm;66534;52.370;4.832;2023-09-18T01:54:39;46.65;43.86;51.99;;
69668;Laerm;66534;52.370;4.832;2023-09-18T01:55:10;45.49;41.77;48.96;;
69668;Laerm;66534;52.370;4.832;2023-09-18T01:55:40;42.83;40.36;44.78;;
69668;Laerm;66534;52.370;4.832;2023-09-18T01:56:11;44.71;41.57;48.82;;
69668;Laerm;66534;52.370;4.832;2023-09-18T01:56:41;45.45;43.64;47.85;;
69668;Laerm;66534;52.370;4.832;2023-09-18T01:57:12;45.16;42.77;48.98;;
69668;Laerm;66534;52.370;4.832;2023-09-18T01:57:42;43.12;40.49;46.42;;
69668;Laerm;66534;52.370;4.832;2023-09-18T01:58:12;45.00;42.71;50.22;;
69668;Laerm;66534;52.370;4.832;2023-09-18T01:58:44;44.70;41.79;48.12;;
69668;Laerm;66534;52.370;4.832;2023-09-18T01:59:14;46.02;42.69;48.79;;
69668;Laerm;66534;52.370;4.832;2023-09-18T01:59:44;45.00;42.81;48.35;;
69668;Laerm;66534;52.370;4.832;2023-09-18T02:00:15;43.33;39.87;45.84;;
69668;Laerm;66534;52.370;4.832;2023-09-18T02:00:45;41.88;39.95;44.11;;
69668;Laerm;66534;52.370;4.832;2023-09-18T02:01:16;42.01;39.90;43.86;;
69668;Laerm;66534;52.370;4.832;2023-09-18T02:01:46;42.66;39.89;45.15;;
69668;Laerm;66534;52.370;4.832;2023-09-18T02:02:16;43.14;40.63;45.56;;
69668;Laerm;66534;52.370;4.832;2023-09-18T02:02:47;43.28;40.18;46.55;;
69668;Laerm;66534;52.370;4.832;2023-09-18T02:03:17;41.91;40.10;45.11;;
69668;Laerm;66534;52.370;4.832;2023-09-18T02:03:50;42.32;39.77;44.85;;
69668;Laerm;66534;52.370;4.832;2023-09-18T02:04:21;42.72;39.36;45.56;;
69668;Laerm;66534;52.370;4.832;2023-09-18T02:04:51;43.36;40.73;44.81;;
69668;Laerm;66534;52.370;4.832;2023-09-18T02:05:21;43.40;41.38;45.61;;
69668;Laerm;66534;52.370;4.832;2023-09-18T02:05:52;41.46;38.80;44.51;;
69668;Laerm;66534;52.370;4.832;2023-09-18T02:06:22;41.69;39.54;43.63;;
69668;Laerm;66534;52.370;4.832;2023-09-18T02:06:53;42.83;39.71;46.14;;
69668;Laerm;66534;52.370;4.832;2023-09-18T02:07:23;42.73;39.81;46.27;;
69668;Laerm;66534;52.370;4.832;2023-09-18T02:07:53;41.37;39.74;43.73;;
69668;Laerm;66534;52.370;4.832;2023-09-18T02:08:23;42.49;39.43;44.97;;
69668;Laerm;66534;52.370;4.832;2023-09-18T02:08:54;43.07;39.85;46.67;;
69668;Laerm;66534;52.370;4.832;2023-09-18T02:09:25;41.98;40.14;43.79;;
69668;Laerm;66534;52.370;4.832;2023-09-18T02:09:55;46.23;40.82;53.35;;
69668;Laerm;66534;52.370;4.832;2023-09-18T02:10:26;41.20;39.23;43.30;;
69668;Laerm;66534;52.370;4.832;2023-09-18T02:10:57;42.66;40.21;44.87;;
69668;Laerm;66534;52.370;4.832;2023-09-18T02:11:27;40.15;38.22;42.49;;
69668;Laerm;66534;52.370;4.832;2023-09-18T02:11:57;39.77;37.70;43.46;;
69668;Laerm;66534;52.370;4.832;2023-09-18T02:12:28;40.32;38.69;42.93;;
69668;Laerm;66534;52.370;4.832;2023-09-18T02:12:58;39.77;38.06;41.53;;
69668;Laerm;66534;52.370;4.832;2023-09-18T02:13:28;41.44;39.11;45.20;;
69668;Laerm;66534;52.370;4.832;2023-09-18T02:13:59;65.80;39.54;85.93;;
69668;Laerm;66534;52.370;4.832;2023-09-18T02:14:29;42.33;39.91;45.11;;
69668;Laerm;66534;52.370;4.832;2023-09-18T02:15:00;41.38;39.31;43.91;;
69668;Laerm;66534;52.370;4.832;2023-09-18T02:15:36;43.23;40.60;45.55;;
69668;Laerm;66534;52.370;4.832;2023-09-18T02:16:06;45.50;43.34;47.86;;
69668;Laerm;66534;52.370;4.832;2023-09-18T02:16:37;46.11;43.16;48.92;;
69668;Laerm;66534;52.370;4.832;2023-09-18T02:17:11;44.84;41.84;48.95;;
69668;Laerm;66534;52.370;4.832;2023-09-18T02:17:41;45.17;41.57;48.95;;
69668;Laerm;66534;52.370;4.832;2023-09-18T02:18:11;45.18;41.52;48.54;;
69668;Laerm;66534;52.370;4.832;2023-09-18T02:18:42;52.89;46.30;62.03;;
69668;Laerm;66534;52.370;4.832;2023-09-18T02:19:13;46.79;44.63;50.91;;
69668;Laerm;66534;52.370;4.832;2023-09-18T02:19:44;44.89;41.96;46.82;;
69668;Laerm;66534;52.370;4.832;2023-09-18T02:20:14;44.50;41.31;46.64;;
69668;Laerm;66534;52.370;4.832;2023-09-18T02:20:45;45.18;41.60;47.58;;
69668;Laerm;66534;52.370;4.832;2023-09-18T02:21:19;46.18;40.86;50.71;;
69668;Laerm;66534;52.370;4.832;2023-09-18T02:21:50;47.28;43.62;51.12;;
69668;Laerm;66534;52.370;4.832;2023-09-18T02:22:20;48.37;45.40;51.09;;
69668;Laerm;66534;52.370;4.832;2023-09-18T02:22:50;47.81;43.74;50.46;;
69668;Laerm;66534;52.370;4.832;2023-09-18T02:23:21;42.23;39.81;45.48;;
69668;Laerm;66534;52.370;4.832;2023-09-18T02:23:51;48.93;42.54;52.04;;
69668;Laerm;66534;52.370;4.832;2023-09-18T02:24:22;47.10;42.66;51.28;;
69668;Laerm;66534;52.370;4.832;2023-09-18T02:24:53;44.12;41.62;46.87;;
69668;Laerm;66534;52.370;4.832;2023-09-18T02:25:23;46.45;43.59;49.13;;
69668;Laerm;66534;52.370;4.832;2023-09-18T02:25:58;45.75;42.52;48.29;;
69668;Laerm;66534;52.370;4.832;2023-09-18T02:26:28;47.36;44.85;50.86;;
69668;Laerm;66534;52.370;4.832;2023-09-18T02:26:59;50.43;48.50;52.48;;
69668;Laerm;66534;52.370;4.832;2023-09-18T02:27:29;52.28;48.19;56.18;;
69668;Laerm;66534;52.370;4.832;2023-09-18T02:27:59;48.61;45.89;51.46;;
69668;Laerm;66534;52.370;4.832;2023-09-18T02:28:29;47.05;44.59;49.86;;
69668;Laerm;66534;52.370;4.832;2023-09-18T02:29:01;48.52;45.68;51.13;;
69668;Laerm;66534;52.370;4.832;2023-09-18T02:29:31;49.52;47.09;52.43;;
69668;Laerm;66534;52.370;4.832;2023-09-18T02:30:01;47.17;44.86;49.89;;
69668;Laerm;66534;52.370;4.832;2023-09-18T02:30:32;47.58;44.34;49.59;;
69668;Laerm;66534;52.370;4.832;2023-09-18T02:31:02;45.78;43.12;50.28;;
69668;Laerm;66534;52.370;4.832;2023-09-18T02:31:32;47.26;44.31;49.83;;
69668;Laerm;66534;52.370;4.832;2023-09-18T02:32:03;45.78;43.77;48.00;;
69668;Laerm;66534;52.370;4.832;2023-09-18T02:32:33;49.49;44.38;53.19;;
69668;Laerm;66534;52.370;4.832;2023-09-18T02:33:04;50.48;46.31;54.58;;
69668;Laerm;66534;52.370;4.832;2023-09-18T02:33:35;46.82;44.37;48.92;;
69668;Laerm;66534;52.370;4.832;2023-09-18T02:34:05;47.26;44.46;50.59;;
69668;Laerm;66534;52.370;4.832;2023-09-18T02:34:37;49.69;45.91;52.54;;
69668;Laerm;66534;52.370;4.832;2023-09-18T02:35:07;47.84;45.20;54.90;;
69668;Laerm;66534;52.370;4.832;2023-09-18T02:35:37;48.92;43.69;52.89;;
69668;Laerm;66534;52.370;4.832;2023-09-18T02:36:08;48.78;44.04;52.94;;
69668;Laerm;66534;52.370;4.832;2023-09-18T02:36:38;47.19;44.48;49.81;;
69668;Laerm;66534;52.370;4.832;2023-09-18T02:37:08;48.55;46.47;50.89;;
69668;Laerm;66534;52.370;4.832;2023-09-18T02:37:39;47.74;45.47;50.44;;
69668;Laerm;66534;52.370;4.832;2023-09-18T02:38:09;47.31;44.69;50.19;;
69668;Laerm;66534;52.370;4.832;2023-09-18T02:38:39;47.04;43.64;57.02;;
69668;Laerm;66534;52.370;4.832;2023-09-18T02:39:10;47.29;42.96;53.37;;
69668;Laerm;66534;52.370;4.832;2023-09-18T02:39:40;50.48;44.53;53.63;;
69668;Laerm;66534;52.370;4.832;2023-09-18T02:40:11;47.79;44.65;52.90;;
69668;Laerm;66534;52.370;4.832;2023-09-18T02:40:41;50.37;45.34;53.07;;
69668;Laerm;66534;52.370;4.832;2023-09-18T02:41:11;47.82;43.46;52.49;;
69668;Laerm;66534;52.370;4.832;2023-09-18T02:41:42;45.54;43.64;47.62;;
69668;Laerm;66534;52.370;4.832;2023-09-18T02:42:12;45.28;43.26;47.55;;
69668;Laerm;66534;52.370;4.832;2023-09-18T02:42:42;44.79;42.39;49.77;;
69668;Laerm;66534;52.370;4.832;2023-09-18T02:43:12;47.02;44.21;52.80;;
69668;Laerm;66534;52.370;4.832;2023-09-18T02:43:43;44.64;42.41;47.48;;
69668;Laerm;66534;52.370;4.832;2023-09-18T02:44:13;44.18;42.61;46.03;;
69668;Laerm;66534;52.370;4.832;2023-09-18T02:44:43;46.40;43.19;52.51;;
69668;Laerm;66534;52.370;4.832;2023-09-18T02:45:14;44.70;42.17;52.24;;
69668;Laerm;66534;52.370;4.832;2023-09-18T02:45:44;41.71;39.06;43.64;;
69668;Laerm;66534;52.370;4.832;2023-09-18T02:46:15;41.86;38.78;44.88;;
69668;Laerm;66534;52.370;4.832;2023-09-18T02:46:46;41.23;39.17;42.92;;
69668;Laerm;66534;52.370;4.832;2023-09-18T02:47:16;42.80;40.52;45.36;;
69668;Laerm;66534;52.370;4.832;2023-09-18T02:47:48;42.44;40.70;43.92;;
69668;Laerm;66534;52.370;4.832;2023-09-18T02:48:18;43.50;40.33;46.35;;
69668;Laerm;66534;52.370;4.832;2023-09-18T02:48:48;46.34;43.63;48.77;;
69668;Laerm;66534;52.370;4.832;2023-09-18T02:49:19;45.55;42.99;52.14;;
69668;Laerm;66534;52.370;4.832;2023-09-18T02:49:49;45.52;40.19;52.17;;
69668;Laerm;66534;52.370;4.832;2023-09-18T02:50:19;44.57;42.28;47.30;;
69668;Laerm;66534;52.370;4.832;2023-09-18T02:50:49;42.29;39.11;45.49;;
69668;Laerm;66534;52.370;4.832;2023-09-18T02:51:20;43.87;39.24;46.48;;
69668;Laerm;66534;52.370;4.832;2023-09-18T02:51:50;43.37;40.99;45.38;;
69668;Laerm;66534;52.370;4.832;2023-09-18T02:52:20;42.28;40.05;45.14;;
69668;Laerm;66534;52.370;4.832;2023-09-18T02:52:51;41.26;38.96;52.56;;
69668;Laerm;66534;52.370;4.832;2023-09-18T02:53:22;42.30;39.90;44.38;;
69668;Laerm;66534;52.370;4.832;2023-09-18T02:53:52;43.79;41.78;45.83;;